createdAt,value
2019-04-01T00:00:53.229Z,72.71
2019-04-01T00:03:22.842Z,72.74
2019-04-01T00:05:52.208Z,72.84
2019-04-01T00:08:21.952Z,72.81
2019-04-01T00:10:51.257Z,72.83
2019-04-01T00:13:20.761Z,72.73
2019-04-01T00:15:50.411Z,72.74
2019-04-01T00:18:19.898Z,72.72
2019-04-01T00:21:08.648Z,72.81
2019-04-01T00:23:38.078Z,72.89
2019-04-01T00:26:07.754Z,72.96
2019-04-01T00:28:37.346Z,73.00
2019-04-01T00:31:06.802Z,73.02
2019-04-01T00:33:38.062Z,73.13
2019-04-01T00:36:07.432Z,73.25
2019-04-01T00:44:41.846Z,73.72
2019-04-01T00:47:11.211Z,73.79
2019-04-01T00:49:40.876Z,73.87
2019-04-01T00:52:10.219Z,74.00
2019-04-01T00:54:40.136Z,74.17
2019-04-01T00:57:09.505Z,74.30
2019-04-01T00:59:41.210Z,74.32
2019-04-01T01:02:10.933Z,74.32
2019-04-01T01:04:40.295Z,74.37
2019-04-01T01:07:09.949Z,74.49
2019-04-01T01:12:28.070Z,74.77
2019-04-01T01:14:57.416Z,74.72
2019-04-01T01:20:23.132Z,74.88
2019-04-01T01:22:53.085Z,74.79
2019-04-01T01:25:22.759Z,74.72
2019-04-01T01:27:52.461Z,74.71
2019-04-01T01:30:22.069Z,74.81
2019-04-01T01:32:53.090Z,74.96
2019-04-01T01:35:22.429Z,75.17
2019-04-01T01:37:52.091Z,75.38
2019-04-01T01:40:21.674Z,75.62
2019-04-01T01:42:51.288Z,75.89
2019-04-01T01:45:20.964Z,76.08
2019-04-01T01:47:50.308Z,76.12
2019-04-01T01:50:19.672Z,76.19
2019-04-01T01:52:49.265Z,76.28
2019-04-01T01:55:38.976Z,76.50
2019-04-01T01:58:08.339Z,76.54
2019-04-01T02:03:47.345Z,76.55
2019-04-01T02:06:16.982Z,76.58
2019-04-01T02:08:46.629Z,76.72
2019-04-01T02:11:16.182Z,76.97
2019-04-01T02:13:45.539Z,77.02
2019-04-01T02:16:15.024Z,76.99
2019-04-01T02:18:44.368Z,76.87
2019-04-01T02:21:19.971Z,76.86
2019-04-01T02:23:49.626Z,76.76
2019-04-01T02:26:19.175Z,76.77
2019-04-01T02:28:48.546Z,76.87
2019-04-01T02:31:19.532Z,77.11
2019-04-01T02:33:49.187Z,77.33
2019-04-01T02:36:18.546Z,77.46
2019-04-01T02:38:48.152Z,77.52
2019-04-01T02:41:17.498Z,77.66
2019-04-01T02:43:47.161Z,77.66
2019-04-01T02:46:16.508Z,77.77
2019-04-01T02:48:47.612Z,77.94
2019-04-01T02:51:17.110Z,78.02
2019-04-01T02:54:05.930Z,78.01
2019-04-01T02:56:36.504Z,78.09
2019-04-01T02:59:06.144Z,78.27
2019-04-01T03:01:37.428Z,78.33
2019-04-01T03:04:07.088Z,78.48
2019-04-01T03:06:36.557Z,78.71
2019-04-01T03:09:27.053Z,78.87
2019-04-01T03:11:56.509Z,78.99
2019-04-01T03:14:27.603Z,78.96
2019-04-01T03:17:16.900Z,78.98
2019-04-01T03:20:05.438Z,78.99
2019-04-01T03:22:34.802Z,79.10
2019-04-01T03:25:25.201Z,79.22
2019-04-01T03:27:54.568Z,79.28
2019-04-01T03:30:24.446Z,79.33
2019-04-01T03:33:00.657Z,79.42
2019-04-01T03:35:31.610Z,79.55
2019-04-01T03:38:03.327Z,79.74
2019-04-01T03:40:32.697Z,79.82
2019-04-01T03:43:02.264Z,79.98
2019-04-01T03:45:31.663Z,80.15
2019-04-01T03:48:01.304Z,80.32
2019-04-01T03:50:32.448Z,80.64
2019-04-01T03:53:01.811Z,80.87
2019-04-01T03:55:31.262Z,81.08
2019-04-01T03:58:00.629Z,81.34
2019-04-01T04:00:30.265Z,81.48
2019-04-01T04:02:59.615Z,81.46
2019-04-01T04:05:48.627Z,81.58
2019-04-01T04:08:37.633Z,81.58
2019-04-01T04:11:07.274Z,81.54
2019-04-01T04:13:36.891Z,81.41
2019-04-01T04:16:06.814Z,81.36
2019-04-01T04:18:36.758Z,81.47
2019-04-01T04:21:06.400Z,81.39
2019-04-01T04:23:36.754Z,81.33
2019-04-01T04:26:06.501Z,81.28
2019-04-01T04:28:42.970Z,81.42
2019-04-01T04:31:32.154Z,81.41
2019-04-01T04:34:01.530Z,81.39
2019-04-01T04:39:26.409Z,81.42
2019-04-01T04:41:56.040Z,81.54
2019-04-01T04:44:25.849Z,81.53
2019-04-01T04:46:55.427Z,81.39
2019-04-01T04:49:25.029Z,81.40
2019-04-01T04:51:56.316Z,81.25
2019-04-01T04:54:25.728Z,81.19
2019-04-01T04:56:55.394Z,81.17
2019-04-01T04:59:24.766Z,81.23
2019-04-01T05:01:54.433Z,81.21
2019-04-01T05:04:23.793Z,81.07
2019-04-01T05:06:53.452Z,81.09
2019-04-01T05:10:02.839Z,81.17
2019-04-01T05:12:32.494Z,81.12
2019-04-01T05:15:01.841Z,81.18
2019-04-01T05:17:31.542Z,81.14
2019-04-01T05:20:00.904Z,81.24
2019-04-01T05:22:51.370Z,81.43
2019-04-01T05:25:20.734Z,81.50
2019-04-01T05:28:09.803Z,81.62
2019-04-01T05:36:54.246Z,82.08
2019-04-01T05:39:23.885Z,82.12
2019-04-01T05:42:12.892Z,82.27
2019-04-01T05:44:42.592Z,82.27
2019-04-01T05:47:12.009Z,82.08
2019-04-01T05:49:42.932Z,81.98
2019-04-01T05:52:12.546Z,81.81
2019-04-01T05:54:42.851Z,81.70
2019-04-01T05:57:12.208Z,81.48
2019-04-01T05:59:43.368Z,81.29
2019-04-01T06:02:12.781Z,80.63
2019-04-01T06:05:23.816Z,80.47
2019-04-01T06:07:53.452Z,80.06
2019-04-01T06:10:22.817Z,79.74
2019-04-01T06:12:52.160Z,79.30
2019-04-01T06:15:21.735Z,78.96
2019-04-01T06:17:51.086Z,78.22
2019-04-01T06:20:20.625Z,77.95
2019-04-01T06:22:49.980Z,77.36
2019-04-01T06:25:19.673Z,76.84
2019-04-01T06:27:49.366Z,76.75
2019-04-01T06:30:20.625Z,76.05
2019-04-01T06:32:49.989Z,75.53
2019-04-01T06:35:19.652Z,74.95
2019-04-01T06:37:49.023Z,74.40
2019-04-01T06:40:18.918Z,74.15
2019-04-01T06:42:48.870Z,73.46
2019-04-01T06:45:18.219Z,73.35
2019-04-01T06:47:47.876Z,71.38
2019-04-01T06:50:17.525Z,71.38
2019-04-01T06:52:46.879Z,71.39
2019-04-01T06:55:16.234Z,71.08
2019-04-01T06:57:45.893Z,71.08
2019-04-01T07:00:15.567Z,70.68
2019-04-01T07:02:44.983Z,70.00
2019-04-01T07:05:14.152Z,69.50
2019-04-01T07:07:44.547Z,69.42
2019-04-01T07:10:13.897Z,69.06
2019-04-01T07:12:43.262Z,68.79
2019-04-01T07:15:12.911Z,68.42
2019-04-01T07:17:42.551Z,67.46
2019-04-01T07:20:11.963Z,67.57
2019-04-01T07:23:21.662Z,67.42
2019-04-01T07:26:12.085Z,66.80
2019-04-01T07:28:41.780Z,66.46
2019-04-01T07:31:11.215Z,66.09
2019-04-01T07:33:40.816Z,65.81
2019-04-01T07:36:10.230Z,64.88
2019-04-01T07:38:58.886Z,63.46
2019-04-01T07:41:28.252Z,63.46
2019-04-01T07:44:10.306Z,63.47
2019-04-01T07:46:39.973Z,63.47
2019-04-01T07:49:28.419Z,62.67
2019-04-01T07:52:17.422Z,60.64
2019-04-01T07:54:47.153Z,60.64
2019-04-01T07:57:16.525Z,61.21
2019-04-01T07:59:46.172Z,59.48
2019-04-01T08:02:28.465Z,58.30
2019-04-01T08:05:09.899Z,59.26
2019-04-01T08:07:39.527Z,59.26
2019-04-01T08:10:28.550Z,59.00
2019-04-01T08:12:57.901Z,59.00
2019-04-01T08:15:27.428Z,58.37
2019-04-01T08:17:57.050Z,57.64
2019-04-01T08:20:26.405Z,57.29
2019-04-01T08:22:57.359Z,56.09
2019-04-01T08:25:27.023Z,55.67
2019-04-01T08:27:56.371Z,55.34
2019-04-01T08:30:25.975Z,52.79
2019-04-01T08:32:55.400Z,54.25
2019-04-01T08:35:25.106Z,54.03
2019-04-01T08:37:54.475Z,53.49
2019-04-01T08:40:23.964Z,53.76
2019-04-01T08:42:59.620Z,52.79
2019-04-01T08:45:29.064Z,51.71
2019-04-01T08:47:58.437Z,50.92
2019-04-01T08:50:47.436Z,50.13
2019-04-01T08:53:57.114Z,50.31
2019-04-01T08:59:48.596Z,50.69
2019-04-01T09:02:19.583Z,51.16
2019-04-01T09:04:49.351Z,52.19
2019-04-01T09:07:19.008Z,50.77
2019-04-01T09:12:50.408Z,48.45
2019-04-01T09:15:20.156Z,49.22
2019-04-01T09:17:49.824Z,49.01
2019-04-01T09:20:19.181Z,48.56
2019-04-01T09:22:48.581Z,49.06
2019-04-01T09:25:18.206Z,46.05
2019-04-01T09:27:47.557Z,45.13
2019-04-01T09:30:18.872Z,45.09
2019-04-01T09:32:54.073Z,46.88
2019-04-01T09:35:23.444Z,48.63
2019-04-01T09:37:53.115Z,46.46
2019-04-01T09:40:22.467Z,45.17
2019-04-01T09:42:52.164Z,45.54
2019-04-01T09:45:21.607Z,44.77
2019-04-01T09:47:51.251Z,43.91
2019-04-01T09:53:22.696Z,44.49
2019-04-01T09:58:33.164Z,43.33
2019-04-01T10:01:02.780Z,42.46
2019-04-01T10:03:32.287Z,43.18
2019-04-01T10:09:15.329Z,43.90
2019-04-01T10:11:44.685Z,43.93
2019-04-01T10:14:19.767Z,42.97
2019-04-01T10:16:49.420Z,42.91
2019-04-01T10:19:18.835Z,42.99
2019-04-01T10:21:48.463Z,42.07
2019-04-01T10:27:32.870Z,43.08
2019-04-01T10:30:02.346Z,42.34
2019-04-01T10:32:32.124Z,42.76
2019-04-01T10:38:18.249Z,40.63
2019-04-01T10:40:47.606Z,40.44
2019-04-01T10:43:17.384Z,40.36
2019-04-01T10:45:46.805Z,41.40
2019-04-01T10:48:16.418Z,40.32
2019-04-01T10:50:47.432Z,40.22
2019-04-01T10:53:16.831Z,40.45
2019-04-01T10:55:46.534Z,40.11
2019-04-01T10:58:16.280Z,40.72
2019-04-01T11:00:45.750Z,38.05
2019-04-01T11:03:15.396Z,39.51
2019-04-01T11:06:06.038Z,39.26
2019-04-01T11:08:35.492Z,39.26
2019-04-01T11:11:04.826Z,39.83
2019-04-01T11:13:34.360Z,40.65
2019-04-01T11:16:03.757Z,39.27
2019-04-01T11:18:33.401Z,39.41
2019-04-01T11:21:02.756Z,39.93
2019-04-01T11:23:33.766Z,40.84
2019-04-01T11:26:22.615Z,38.24
2019-04-01T11:28:52.228Z,38.74
2019-04-01T11:34:10.528Z,38.80
2019-04-01T11:36:39.868Z,37.55
2019-04-01T11:42:32.926Z,38.09
2019-04-01T11:45:05.599Z,37.83
2019-04-01T11:47:38.962Z,36.23
2019-04-01T11:53:42.912Z,36.36
2019-04-01T11:56:12.535Z,35.64
2019-04-01T11:58:41.884Z,36.62
2019-04-01T12:01:11.469Z,35.90
2019-04-01T12:03:40.831Z,35.71
2019-04-01T12:06:10.503Z,37.04
2019-04-01T12:08:39.869Z,37.69
2019-04-01T12:11:09.514Z,36.02
2019-04-01T12:13:38.877Z,36.28
2019-04-01T12:16:08.457Z,36.77
2019-04-01T12:18:37.933Z,36.39
2019-04-01T12:21:08.267Z,36.69
2019-04-01T12:23:57.681Z,35.84
2019-04-01T12:26:27.030Z,35.60
2019-04-01T12:28:56.665Z,37.37
2019-04-01T12:31:26.016Z,35.96
2019-04-01T12:33:55.661Z,35.62
2019-04-01T12:36:25.036Z,35.89
2019-04-01T12:38:54.681Z,36.03
2019-04-01T12:41:24.049Z,36.43
2019-04-01T12:43:53.709Z,36.59
2019-04-01T12:46:23.059Z,37.18
2019-04-01T12:48:52.725Z,36.73
2019-04-01T12:51:22.855Z,37.04
2019-04-01T12:53:52.811Z,37.12
2019-04-01T12:57:02.221Z,36.20
2019-04-01T12:59:50.979Z,36.46
2019-04-01T13:02:20.672Z,36.95
2019-04-01T13:04:51.488Z,36.87
2019-04-01T13:07:40.164Z,36.98
2019-04-01T13:10:09.743Z,37.12
2019-04-01T13:12:39.353Z,36.84
2019-04-01T13:15:08.793Z,35.91
2019-04-01T13:20:58.683Z,36.82
2019-04-01T13:23:28.050Z,36.82
2019-04-01T13:25:58.031Z,37.04
2019-04-01T13:28:27.933Z,36.99
2019-04-01T13:30:57.282Z,37.22
2019-04-01T13:33:26.758Z,37.37
2019-04-01T13:35:56.911Z,37.44
2019-04-01T13:38:26.217Z,37.54
2019-04-01T13:40:56.212Z,37.65
2019-04-01T13:43:25.715Z,38.54
2019-04-01T13:45:55.071Z,37.46
2019-04-01T13:48:24.740Z,37.35
2019-04-01T13:50:54.401Z,38.11
2019-04-01T13:53:23.885Z,37.92
2019-04-01T13:55:53.236Z,37.21
2019-04-01T13:58:22.825Z,37.67
2019-04-01T14:00:52.188Z,37.16
2019-04-01T14:03:21.861Z,37.95
2019-04-01T14:05:51.233Z,37.46
2019-04-01T14:08:22.317Z,37.76
2019-04-01T14:10:57.905Z,37.67
2019-04-01T14:13:27.268Z,37.18
2019-04-01T14:15:56.838Z,37.19
2019-04-01T14:18:26.188Z,37.36
2019-04-01T14:20:56.151Z,38.14
2019-04-01T14:23:25.507Z,38.15
2019-04-01T14:25:54.999Z,37.95
2019-04-01T14:28:24.349Z,38.09
2019-04-01T14:30:54.030Z,37.94
2019-04-01T14:33:23.396Z,37.94
2019-04-01T14:35:53.045Z,38.38
2019-04-01T14:38:22.417Z,38.03
2019-04-01T14:41:04.200Z,36.74
2019-04-01T14:43:45.989Z,36.74
2019-04-01T14:46:16.309Z,37.71
2019-04-01T14:48:46.144Z,37.77
2019-04-01T14:51:15.502Z,38.18
2019-04-01T14:53:45.204Z,38.05
2019-04-01T14:56:15.119Z,38.15
2019-04-01T14:58:45.213Z,38.62
2019-04-01T15:01:14.885Z,38.66
2019-04-01T15:03:44.246Z,38.34
2019-04-01T15:06:13.875Z,38.27
2019-04-01T15:08:43.227Z,38.10
2019-04-01T15:11:12.888Z,38.28
2019-04-01T15:17:17.333Z,37.85
2019-04-01T15:19:53.126Z,38.04
2019-04-01T15:22:22.864Z,38.50
2019-04-01T15:25:13.338Z,38.45
2019-04-01T15:27:42.710Z,38.45
2019-04-01T15:30:53.726Z,38.32
2019-04-01T15:33:23.096Z,38.36
2019-04-01T15:35:52.735Z,38.33
2019-04-01T15:38:22.516Z,38.79
2019-04-01T15:41:03.321Z,39.04
2019-04-01T15:43:32.985Z,38.70
2019-04-01T15:46:04.185Z,38.86
2019-04-01T15:48:38.530Z,39.54
2019-04-01T15:51:20.159Z,39.70
2019-04-01T15:54:01.266Z,39.94
2019-04-01T15:56:41.672Z,39.33
2019-04-01T15:59:15.111Z,39.33
2019-04-01T16:04:59.132Z,40.24
2019-04-01T16:07:28.984Z,40.32
2019-04-01T16:10:18.643Z,40.51
2019-04-01T16:12:48.499Z,40.82
2019-04-01T16:15:18.144Z,41.40
2019-04-01T16:17:47.598Z,41.10
2019-04-01T16:20:17.144Z,41.45
2019-04-01T16:22:46.502Z,41.89
2019-04-01T16:25:16.159Z,41.93
2019-04-01T16:27:45.519Z,41.58
2019-04-01T16:30:15.196Z,41.40
2019-04-01T16:33:15.762Z,41.24
2019-04-01T16:35:46.796Z,41.60
2019-04-01T16:38:16.169Z,42.12
2019-04-01T16:40:45.813Z,41.96
2019-04-01T16:43:17.094Z,41.89
2019-04-01T16:46:05.690Z,41.77
2019-04-01T16:51:14.280Z,42.20
2019-04-01T16:53:44.541Z,42.19
2019-04-01T16:56:33.796Z,42.13
2019-04-01T16:59:03.189Z,42.23
2019-04-01T17:01:32.541Z,42.66
2019-04-01T17:04:02.517Z,43.00
2019-04-01T17:09:27.771Z,42.94
2019-04-01T17:11:59.043Z,43.43
2019-04-01T17:14:47.727Z,43.86
2019-04-01T17:17:17.390Z,43.83
2019-04-01T17:19:46.758Z,43.28
2019-04-01T17:22:16.328Z,43.07
2019-04-01T17:24:46.105Z,43.35
2019-04-01T17:27:36.149Z,43.87
2019-04-01T17:30:24.844Z,44.52
2019-04-01T17:32:54.821Z,44.51
2019-04-01T17:35:24.478Z,44.58
2019-04-01T17:37:53.853Z,44.90
2019-04-01T17:40:23.318Z,45.05
2019-04-01T17:46:41.816Z,45.78
2019-04-01T17:52:00.311Z,46.15
2019-04-01T17:54:29.663Z,46.26
2019-04-01T17:56:59.325Z,46.53
2019-04-01T17:59:28.679Z,46.55
2019-04-01T18:01:58.348Z,46.78
2019-04-01T18:04:27.687Z,46.80
2019-04-01T18:09:53.044Z,47.24
2019-04-01T18:12:23.880Z,47.46
2019-04-01T18:15:12.776Z,47.62
2019-04-01T18:17:42.439Z,47.32
2019-04-01T18:23:13.947Z,47.83
2019-04-01T18:25:46.606Z,47.86
2019-04-01T18:28:16.318Z,48.31
2019-04-01T18:30:45.691Z,48.49
2019-04-01T18:33:15.166Z,48.39
2019-04-01T18:35:45.070Z,48.70
2019-04-01T18:38:21.454Z,48.91
2019-04-01T18:40:50.803Z,49.08
2019-04-01T18:43:39.804Z,49.26
2019-04-01T18:46:09.459Z,49.38
2019-04-01T18:51:25.523Z,49.82
2019-04-01T18:53:54.886Z,49.81
2019-04-01T18:56:24.557Z,50.06
2019-04-01T18:58:54.430Z,50.12
2019-04-01T19:01:23.754Z,50.07
2019-04-01T19:03:53.127Z,50.21
2019-04-01T19:06:22.555Z,50.44
2019-04-01T19:08:51.970Z,50.62
2019-04-01T19:11:21.556Z,50.68
2019-04-01T19:13:51.229Z,50.62
2019-04-01T19:16:23.053Z,50.90
2019-04-01T19:19:11.245Z,51.02
2019-04-01T19:21:53.157Z,51.20
2019-04-01T19:24:22.578Z,51.12
2019-04-01T19:26:52.242Z,51.31
2019-04-01T19:29:32.003Z,51.49
2019-04-01T19:32:06.566Z,51.67
2019-04-01T19:34:44.242Z,51.87
2019-04-01T19:37:13.767Z,51.86
2019-04-01T19:39:43.119Z,52.72
2019-04-01T19:45:07.020Z,52.09
2019-04-01T19:47:36.671Z,52.46
2019-04-01T19:50:26.938Z,52.72
2019-04-01T19:53:08.790Z,52.91
2019-04-01T19:55:39.061Z,52.91
2019-04-01T19:58:08.757Z,53.02
2019-04-01T20:00:38.980Z,53.09
2019-04-01T20:03:08.637Z,53.15
2019-04-01T20:05:38.968Z,53.54
2019-04-01T20:11:22.145Z,53.40
2019-04-01T20:13:54.724Z,53.40
2019-04-01T20:16:41.707Z,53.67
2019-04-01T20:19:11.062Z,53.67
2019-04-01T20:21:40.731Z,53.96
2019-04-01T20:24:10.418Z,54.04
2019-04-01T20:26:40.078Z,54.33
2019-04-01T20:29:10.979Z,54.41
2019-04-01T20:32:30.092Z,54.51
2019-04-01T20:35:00.015Z,54.64
2019-04-01T20:37:51.736Z,54.73
2019-04-01T20:40:21.377Z,55.03
2019-04-01T20:42:50.744Z,55.07
2019-04-01T20:45:20.092Z,55.07
2019-04-01T20:47:50.523Z,55.15
2019-04-01T20:50:40.869Z,55.18
2019-04-01T20:53:10.239Z,55.43
2019-04-01T20:55:48.213Z,55.60
2019-04-01T20:58:30.602Z,55.60
2019-04-01T21:00:59.961Z,55.60
2019-04-01T21:03:34.791Z,55.99
2019-04-01T21:06:04.419Z,55.99
2019-04-01T21:08:46.305Z,56.25
2019-04-01T21:11:29.733Z,56.13
2019-04-01T21:14:03.085Z,56.13
2019-04-01T21:16:52.065Z,56.33
2019-04-01T21:19:21.391Z,56.63
2019-04-01T21:21:52.382Z,56.64
2019-04-01T21:24:23.346Z,56.82
2019-04-01T21:26:55.809Z,56.81
2019-04-01T21:29:44.781Z,56.96
2019-04-01T21:32:14.144Z,57.14
2019-04-01T21:34:43.809Z,57.23
2019-04-01T21:37:13.183Z,57.43
2019-04-01T21:39:43.099Z,57.62
2019-04-01T21:45:54.449Z,57.79
2019-04-01T21:48:43.410Z,58.13
2019-04-01T21:51:25.087Z,58.38
2019-04-01T21:53:54.533Z,58.38
2019-04-01T21:56:23.962Z,58.35
2019-04-01T21:58:55.298Z,58.35
2019-04-01T22:01:44.205Z,58.60
2019-04-01T22:04:15.200Z,58.60
2019-04-01T22:06:45.141Z,58.95
2019-04-01T22:09:14.513Z,59.12
2019-04-01T22:11:44.159Z,59.10
2019-04-01T22:14:25.732Z,59.52
2019-04-01T22:16:55.187Z,59.52
2019-04-01T22:19:24.584Z,59.43
2019-04-01T22:21:54.227Z,59.45
2019-04-01T22:24:23.592Z,59.50
2019-04-01T22:26:53.288Z,59.61
2019-04-01T22:29:22.947Z,59.77
2019-04-01T22:31:54.590Z,59.81
2019-04-01T22:34:24.070Z,60.08
2019-04-01T22:37:12.842Z,60.15
2019-04-01T22:42:46.489Z,60.44
2019-04-01T22:45:16.123Z,60.63
2019-04-01T22:47:45.843Z,60.76
2019-04-01T22:50:35.624Z,60.81
2019-04-01T22:53:05.366Z,61.01
2019-04-01T23:01:36.951Z,61.14
2019-04-01T23:04:06.307Z,61.24
2019-04-01T23:06:35.837Z,61.44
2019-04-01T23:12:07.118Z,61.63
2019-04-01T23:14:36.479Z,61.78
2019-04-01T23:17:07.465Z,61.94
2019-04-01T23:19:37.068Z,62.08
2019-04-01T23:22:06.410Z,62.22
2019-04-01T23:24:36.079Z,62.30
2019-04-01T23:27:05.444Z,62.36
2019-04-01T23:29:35.067Z,62.34
2019-04-01T23:32:16.281Z,62.45
2019-04-01T23:34:47.356Z,62.49
2019-04-01T23:37:17.030Z,62.63
2019-04-01T23:39:48.602Z,62.69
2019-04-01T23:42:18.252Z,62.81
2019-04-01T23:44:47.611Z,62.90
2019-04-01T23:47:17.533Z,63.08
2019-04-01T23:49:47.199Z,63.23
2019-04-01T23:52:16.558Z,63.36
2019-04-01T23:54:46.163Z,63.49
2019-04-01T23:57:15.507Z,63.62
2019-04-01T23:59:44.876Z,63.84
